Time;durP1;ratioP1;P1;durP2;ratioP2;P2;SDS_P1;SDS_P2;PMS_P1;PMS_P2;Temp;Humidity;BMP_temperature;BMP_pressure;BME280_temperature;BME280_humidity;BME280_pressure;Samples;Min_cycle;Max_cycle;Signal;HPM_P1;HPM_P2
2023/08/18 00:00:57;;;;;;;17.95;10.93;;;;;;;18.48;100.00;101589.47;4957296;28;20061;-89
2023/08/18 00:03:23;;;;;;;14.77;10.73;;;;;;;18.46;100.00;101593.56;4941540;28;20391;-88
2023/08/18 00:05:48;;;;;;;14.87;11.07;;;;;;;18.40;100.00;101595.41;4957292;28;20391;-88
2023/08/18 00:08:14;;;;;;;12.32;10.35;;;;;;;18.40;100.00;101587.97;4975031;28;20105;-88
2023/08/18 00:10:41;;;;;;;13.37;10.97;;;;;;;18.36;100.00;101588.72;4957210;28;20031;-89
2023/08/18 00:13:10;;;;;;;13.93;10.50;;;;;;;18.37;100.00;101583.00;4941815;28;20035;-88
2023/08/18 00:15:35;;;;;;;14.00;9.90;;;;;;;18.37;100.00;101577.50;4957358;28;20029;-88
2023/08/18 00:18:03;;;;;;;11.93;9.95;;;;;;;18.36;100.00;101586.81;4957149;28;20031;-88
2023/08/18 00:20:38;;;;;;;16.98;10.00;;;;;;;18.34;100.00;101583.50;4957279;28;20042;-88
2023/08/18 00:23:04;;;;;;;12.80;10.40;;;;;;;18.32;100.00;101582.06;4956931;28;20049;-88
2023/08/18 00:25:34;;;;;;;11.52;9.60;;;;;;;18.30;100.00;101570.50;4941998;28;20034;-88
2023/08/18 00:28:00;;;;;;;12.18;10.07;;;;;;;18.30;100.00;101582.31;4974484;28;20065;-88
2023/08/18 00:30:28;;;;;;;11.20;8.70;;;;;;;18.26;100.00;101580.31;4957237;28;20082;-89
2023/08/18 00:32:59;;;;;;;11.80;9.27;;;;;;;18.22;100.00;101572.59;4957000;28;20451;-88
2023/08/18 00:35:24;;;;;;;10.98;9.32;;;;;;;18.22;100.00;101569.84;4957729;28;20035;-89
2023/08/18 00:37:50;;;;;;;14.07;10.23;;;;;;;18.20;100.00;101566.53;4974333;28;20034;-89
2023/08/18 00:40:16;;;;;;;14.37;9.57;;;;;;;18.19;100.00;101569.53;4974103;28;20471;-89
2023/08/18 00:42:42;;;;;;;13.45;9.75;;;;;;;18.15;100.00;101560.94;4957184;28;20030;-88
2023/08/18 00:45:10;;;;;;;11.57;9.20;;;;;;;18.06;100.00;101563.25;4956962;28;20372;-89
2023/08/18 00:47:37;;;;;;;12.18;8.95;;;;;;;18.07;100.00;101569.59;4974117;28;20030;-88
2023/08/18 00:50:04;;;;;;;11.95;9.43;;;;;;;18.03;100.00;101566.50;4976189;28;20065;-89
2023/08/18 00:52:37;;;;;;;13.55;9.70;;;;;;;18.05;100.00;101566.25;4960231;28;20081;-88
2023/08/18 00:55:06;;;;;;;12.55;9.60;;;;;;;18.00;100.00;101575.22;4974581;28;20050;-88
2023/08/18 00:57:32;;;;;;;12.43;9.37;;;;;;;17.96;100.00;101568.56;4944538;28;20035;-88
2023/08/18 01:00:00;;;;;;;11.18;8.82;;;;;;;17.96;100.00;101570.47;4960435;28;20495;-89
2023/08/18 01:02:26;;;;;;;10.98;8.88;;;;;;;17.93;100.00;101568.22;4960681;28;20390;-88
2023/08/18 01:04:52;;;;;;;9.67;8.23;;;;;;;17.99;100.00;101573.56;4960177;28;20023;-88
2023/08/18 01:07:18;;;;;;;10.68;8.68;;;;;;;17.97;100.00;101566.66;4959977;28;20031;-89
2023/08/18 01:09:44;;;;;;;11.32;8.77;;;;;;;17.95;100.00;101566.91;4959731;28;20495;-88
2023/08/18 01:12:32;;;;;;;11.57;8.70;;;;;;;17.96;100.00;101565.81;4959887;28;20513;-88
2023/08/18 01:15:03;;;;;;;14.27;9.00;;;;;;;17.95;100.00;101568.81;4960262;28;20027;-88
2023/08/18 01:17:36;;;;;;;10.95;9.00;;;;;;;17.95;100.00;101575.16;4960254;28;20479;-88
2023/08/18 01:20:03;;;;;;;10.50;8.68;;;;;;;17.93;100.00;101569.06;4960139;28;20031;-88
2023/08/18 01:22:33;;;;;;;11.32;8.85;;;;;;;17.94;100.00;101576.22;4959685;28;20027;-88
2023/08/18 01:25:04;;;;;;;9.93;8.40;;;;;;;17.93;100.00;101560.00;4976916;28;20031;-88
2023/08/18 01:27:31;;;;;;;11.63;8.85;;;;;;;17.88;100.00;101552.47;4977109;28;20047;-88
2023/08/18 01:30:00;;;;;;;12.02;9.20;;;;;;;17.84;100.00;101545.81;4959963;28;20041;-88
2023/08/18 01:32:59;;;;;;;12.65;8.93;;;;;;;17.84;100.00;101545.81;4959347;28;20065;-88
2023/08/18 01:35:29;;;;;;;9.85;7.95;;;;;;;17.89;100.00;101545.88;4949218;28;20102;-88
2023/08/18 01:37:58;;;;;;;10.53;8.80;;;;;;;17.84;100.00;101532.09;4959482;28;20066;-88
2023/08/18 01:40:29;;;;;;;12.93;8.90;;;;;;;17.87;100.00;101534.34;4959611;28;20530;-88
2023/08/18 01:42:55;;;;;;;9.40;8.38;;;;;;;17.84;100.00;101526.59;4959429;28;20023;-88
2023/08/18 01:45:20;;;;;;;11.73;8.88;;;;;;;17.83;100.00;101525.78;4959676;28;20483;-88
2023/08/18 01:47:46;;;;;;;12.10;8.83;;;;;;;17.79;100.00;101532.84;4943437;28;20140;-88
2023/08/18 01:50:11;;;;;;;10.00;8.37;;;;;;;17.79;100.00;101541.06;4959578;28;20039;-88
2023/08/18 01:52:39;;;;;;;10.15;8.68;;;;;;;17.74;100.00;101532.72;4974955;28;20034;-88
2023/08/18 01:55:05;;;;;;;13.80;8.70;;;;;;;17.74;100.00;101535.47;4959246;28;20034;-88
2023/08/18 01:57:31;;;;;;;11.68;9.30;;;;;;;17.71;100.00;101530.47;4959159;28;20034;-88
2023/08/18 01:59:56;;;;;;;10.57;9.03;;;;;;;17.71;100.00;101523.06;4958975;28;20093;-87
2023/08/18 02:02:25;;;;;;;12.15;9.45;;;;;;;17.68;100.00;101520.81;4939689;28;20030;-88
2023/08/18 02:04:52;;;;;;;10.30;9.18;;;;;;;17.67;100.00;101524.66;4944035;28;20070;-88
2023/08/18 02:07:18;;;;;;;10.43;9.03;;;;;;;17.65;100.00;101521.31;4959356;28;20031;-88
2023/08/18 02:09:43;;;;;;;11.95;9.52;;;;;;;17.67;100.00;101524.66;4976322;28;20038;-88
2023/08/18 02:12:18;;;;;;;10.53;9.43;;;;;;;17.68;100.00;101526.31;4959110;28;20031;-88
2023/08/18 02:14:43;;;;;;;10.77;9.52;;;;;;;17.66;100.00;101522.16;4959728;28;20041;-88
2023/08/18 02:17:09;;;;;;;10.10;8.90;;;;;;;17.62;100.00;101524.56;4958808;28;20399;-88
2023/08/18 02:19:34;;;;;;;12.17;8.80;;;;;;;17.65;100.00;101521.31;4958984;28;20050;-88
2023/08/18 02:22:02;;;;;;;11.77;9.27;;;;;;;17.63;100.00;101520.75;4975697;28;20034;-88
2023/08/18 02:24:44;;;;;;;10.50;9.38;;;;;;;17.63;100.00;101515.25;4959036;28;20073;-88
2023/08/18 02:27:10;;;;;;;12.82;9.00;;;;;;;17.64;100.00;101519.66;4959011;28;20030;-88
2023/08/18 02:29:38;;;;;;;11.60;8.57;;;;;;;17.65;100.00;101523.25;4958778;28;20495;-87
2023/08/18 02:32:04;;;;;;;10.30;9.27;;;;;;;17.63;100.00;101523.47;4958600;28;20061;-87
2023/08/18 02:34:32;;;;;;;11.32;9.40;;;;;;;17.64;100.00;101524.31;4958774;28;20039;-88
2023/08/18 02:36:57;;;;;;;12.48;9.18;;;;;;;17.60;100.00;101515.75;4976125;28;20085;-88
2023/08/18 02:39:23;;;;;;;10.80;9.10;;;;;;;17.56;100.00;101511.81;4975911;28;20027;-89
2023/08/18 02:41:51;;;;;;;10.53;8.83;;;;;;;17.57;100.00;101507.16;4975938;28;20066;-88
2023/08/18 02:44:17;;;;;;;11.60;9.70;;;;;;;17.54;100.00;101508.50;4958644;28;20022;-89
2023/08/18 02:46:43;;;;;;;14.15;9.25;;;;;;;17.55;100.00;101507.41;4958598;28;20383;-88
2023/08/18 02:49:08;;;;;;;10.63;9.43;;;;;;;17.54;100.00;101506.59;4975589;28;20033;-89
2023/08/18 02:51:34;;;;;;;10.90;9.23;;;;;;;17.58;100.00;101517.06;4957913;28;20031;-88
2023/08/18 02:53:59;;;;;;;11.60;9.45;;;;;;;17.53;100.00;101510.41;4958080;28;20029;-88
2023/08/18 02:56:26;;;;;;;12.60;9.70;;;;;;;17.52;100.00;101505.16;4975710;28;20041;-88
2023/08/18 02:58:51;;;;;;;11.95;9.30;;;;;;;17.50;100.00;101504.59;4958445;28;20100;-88
2023/08/18 03:01:17;;;;;;;12.27;9.80;;;;;;;17.49;100.00;101508.41;4958349;28;20482;-88
2023/08/18 03:03:45;;;;;;;12.30;9.73;;;;;;;17.50;100.00;101504.59;4958129;28;20031;-88
2023/08/18 03:06:11;;;;;;;13.07;9.88;;;;;;;17.48;100.00;101507.56;4958238;28;20697;-88
2023/08/18 03:08:36;;;;;;;13.50;10.07;;;;;;;17.46;100.00;101509.72;4958758;28;20023;-88
2023/08/18 03:11:02;;;;;;;13.93;9.77;;;;;;;17.50;100.00;101508.16;4975195;28;20360;-88
2023/08/18 03:13:30;;;;;;;12.40;9.85;;;;;;;17.47;100.00;101508.66;4975421;28;20039;-88
2023/08/18 03:15:56;;;;;;;12.35;9.80;;;;;;;17.47;100.00;101505.91;4957905;28;20034;-88
2023/08/18 03:18:21;;;;;;;13.30;10.47;;;;;;;17.41;100.00;101504.16;4958102;28;20023;-88
2023/08/18 03:20:48;;;;;;;11.93;10.40;;;;;;;17.39;100.00;101502.72;4975322;28;20038;-88
2023/08/18 03:23:14;;;;;;;14.00;9.68;;;;;;;17.37;100.00;101511.19;4957529;28;20475;-88
2023/08/18 03:25:43;;;;;;;14.98;11.15;;;;;;;17.37;100.00;101505.72;4957602;28;20034;-88
2023/08/18 03:28:10;;;;;;;12.35;10.30;;;;;;;17.36;100.00;101510.38;4958006;28;20034;-88
2023/08/18 03:30:39;;;;;;;14.73;10.27;;;;;;;17.34;100.00;101495.22;4975214;28;20038;-88
2023/08/18 03:33:08;;;;;;;11.57;10.37;;;;;;;17.36;100.00;101506.78;4957471;28;20054;-88
2023/08/18 03:35:35;;;;;;;13.80;10.55;;;;;;;17.31;100.00;101502.03;4957792;28;20487;-88
2023/08/18 03:38:04;;;;;;;13.85;10.65;;;;;;;17.30;100.00;101499.53;4975130;28;20392;-88
2023/08/18 03:40:29;;;;;;;14.38;11.35;;;;;;;17.26;100.00;101495.59;4957706;28;20038;-88
2023/08/18 03:42:55;;;;;;;14.70;11.30;;;;;;;17.25;100.00;101502.19;4957741;28;20039;-88
2023/08/18 03:45:20;;;;;;;13.57;11.10;;;;;;;17.22;100.00;101503.50;4957602;28;20555;-88
2023/08/18 03:47:48;;;;;;;13.70;11.00;;;;;;;17.19;100.00;101496.59;4956741;28;20034;-88
2023/08/18 03:50:14;;;;;;;13.93;11.13;;;;;;;17.16;100.00;101497.09;4957942;28;20109;-89
2023/08/18 03:52:39;;;;;;;17.40;12.02;;;;;;;17.16;100.00;101499.81;4956872;28;20483;-88
2023/08/18 03:55:05;;;;;;;14.70;10.93;;;;;;;17.14;100.00;101499.25;4957246;28;20086;-88
2023/08/18 03:57:33;;;;;;;14.50;11.65;;;;;;;17.14;100.00;101504.72;4974923;28;20066;-88
2023/08/18 03:59:58;;;;;;;15.45;11.43;;;;;;;17.15;100.00;101505.56;4958242;28;20482;-88
2023/08/18 04:02:24;;;;;;;16.17;12.00;;;;;;;17.16;100.00;101507.22;4957168;28;20062;-88
2023/08/18 04:04:49;;;;;;;15.57;11.40;;;;;;;17.12;100.00;101503.31;4974782;28;20031;-88
2023/08/18 04:07:16;;;;;;;16.33;12.20;;;;;;;17.10;100.00;101498.06;4957452;28;20034;-88
2023/08/18 04:09:41;;;;;;;14.23;11.50;;;;;;;17.08;100.00;101507.59;4941620;28;20047;-88
2023/08/18 04:12:06;;;;;;;15.20;11.75;;;;;;;17.06;100.00;101504.28;4957431;28;20089;-87
2023/08/18 04:14:32;;;;;;;16.87;11.97;;;;;;;17.03;100.00;101511.06;4957408;28;20163;-88
2023/08/18 04:16:58;;;;;;;14.83;11.83;;;;;;;17.07;100.00;101512.25;4974980;28;20042;-88
2023/08/18 04:19:26;;;;;;;15.30;11.38;;;;;;;17.07;100.00;101506.78;4974734;28;20066;-88
2023/08/18 04:21:51;;;;;;;14.07;11.07;;;;;;;17.08;100.00;101494.75;4956904;28;20128;-88
2023/08/18 04:24:17;;;;;;;14.47;10.73;;;;;;;17.11;100.00;101493.41;4958523;28;20027;-88
2023/08/18 04:26:42;;;;;;;16.20;11.40;;;;;;;17.09;100.00;101493.66;4929393;28;20031;-88
2023/08/18 04:29:08;;;;;;;16.63;11.97;;;;;;;17.09;100.00;101488.16;4978481;28;20042;-88
2023/08/18 04:31:35;;;;;;;15.13;12.43;;;;;;;17.07;100.00;101490.31;4961025;28;20050;-88
2023/08/18 04:34:01;;;;;;;18.52;11.93;;;;;;;17.05;100.00;101488.91;4978433;28;20042;-88
2023/08/18 04:36:26;;;;;;;17.17;11.80;;;;;;;17.07;100.00;101492.25;4945675;28;20026;-88
2023/08/18 04:38:55;;;;;;;17.13;11.90;;;;;;;17.08;100.00;101488.41;4960592;28;20031;-88
2023/08/18 04:41:20;;;;;;;16.15;12.05;;;;;;;17.07;100.00;101486.75;4960857;28;20031;-88
2023/08/18 04:43:48;;;;;;;16.30;11.53;;;;;;;17.10;100.00;101494.50;4960461;28;20034;-88
2023/08/18 04:46:14;;;;;;;21.05;11.98;;;;;;;17.10;100.00;101491.75;4960638;28;20029;-88
2023/08/18 04:48:41;;;;;;;16.27;11.60;;;;;;;17.12;100.00;101500.56;4945290;28;20031;-88
2023/08/18 04:51:07;;;;;;;18.52;11.85;;;;;;;17.17;100.00;101493.28;4960344;28;20424;-88
2023/08/18 04:53:32;;;;;;;18.50;11.97;;;;;;;17.19;100.00;101499.34;4960612;28;20033;-88
2023/08/18 04:56:01;;;;;;;21.02;12.68;;;;;;;17.19;100.00;101499.34;4944583;28;20057;-88
2023/08/18 04:58:27;;;;;;;16.17;11.70;;;;;;;17.23;100.00;101496.94;4960912;28;20038;-88
2023/08/18 05:00:53;;;;;;;21.02;12.10;;;;;;;17.25;100.00;101507.69;4978226;28;20460;-88
2023/08/18 05:03:19;;;;;;;18.33;11.90;;;;;;;17.24;100.00;101503.25;4961410;28;20392;-88
2023/08/18 05:06:08;;;;;;;20.52;12.98;;;;;;;17.31;100.00;101506.69;4960583;28;20051;-88
2023/08/18 05:08:39;;;;;;;18.60;11.65;;;;;;;17.33;100.00;101504.53;4960670;28;20118;-88
2023/08/18 05:11:06;;;;;;;16.57;10.97;;;;;;;17.36;100.00;101504.03;4977923;28;20031;-88
2023/08/18 05:13:36;;;;;;;18.20;11.68;;;;;;;17.37;100.00;101489.25;4977694;28;20062;-89
2023/08/18 05:16:05;;;;;;;18.40;10.80;;;;;;;17.40;100.00;101490.69;4977571;28;20037;-88
2023/08/18 05:18:31;;;;;;;16.42;11.80;;;;;;;17.39;100.00;101484.38;4960338;28;20487;-88
2023/08/18 05:20:58;;;;;;;15.05;11.50;;;;;;;17.42;100.00;101480.28;4959475;28;20027;-87
2023/08/18 05:23:25;;;;;;;16.17;11.60;;;;;;;17.44;100.00;101483.63;4959810;28;20050;-90
2023/08/18 05:25:54;;;;;;;20.67;12.05;;;;;;;17.46;100.00;101481.47;4944322;28;20042;-87
2023/08/18 05:28:20;;;;;;;16.10;12.48;;;;;;;17.47;100.00;101483.97;4959911;28;20053;-88
2023/08/18 05:30:47;;;;;;;17.92;11.68;;;;;;;17.52;100.00;101485.97;4959919;28;20033;-86
2023/08/18 05:33:13;;;;;;;16.30;11.93;;;;;;;17.57;100.00;101488.81;4928064;28;20065;-88
2023/08/18 05:35:39;;;;;;;17.53;11.83;;;;;;;17.62;100.00;101482.56;4958770;28;20035;-88
2023/08/18 05:38:10;;;;;;;19.88;12.60;;;;;;;17.69;100.00;101475.84;4959762;28;20050;-89
2023/08/18 05:40:49;;;;;;;19.38;12.18;;;;;;;17.74;100.00;101475.09;4960017;28;20479;-89
2023/08/18 05:43:15;;;;;;;19.52;11.48;;;;;;;17.86;100.00;101477.75;4960448;28;20031;-90
2023/08/18 05:45:42;;;;;;;18.30;11.98;;;;;;;17.95;100.00;101495.53;4959418;28;20125;-88
2023/08/18 05:48:08;;;;;;;19.63;12.97;;;;;;;17.94;100.00;101487.53;4976789;28;20486;-89
2023/08/18 05:50:36;;;;;;;18.60;12.70;;;;;;;17.99;100.00;101484.88;4959568;28;20126;-89
2023/08/18 05:53:03;;;;;;;19.95;12.27;;;;;;;18.03;100.00;101486.88;4976135;28;20045;-88
2023/08/18 05:55:29;;;;;;;18.00;12.27;;;;;;;18.01;100.00;101486.31;4943657;28;20403;-89
2023/08/18 05:57:58;;;;;;;18.80;12.60;;;;;;;18.04;100.00;101485.78;4959557;28;20038;-89
2023/08/18 06:00:27;;;;;;;17.85;12.73;;;;;;;18.06;100.00;101488.28;4960039;28;20031;-89
2023/08/18 06:02:53;;;;;;;19.88;13.38;;;;;;;18.04;100.00;101490.44;4959592;28;20030;-90
2023/08/18 06:05:18;;;;;;;19.48;12.38;;;;;;;18.06;100.00;101497.34;4959323;28;20490;-89
2023/08/18 06:07:44;;;;;;;19.43;13.00;;;;;;;18.07;100.00;101498.19;4959325;28;20070;-89
2023/08/18 06:10:13;;;;;;;19.60;12.40;;;;;;;18.04;100.00;101495.94;4959267;28;20030;-89
2023/08/18 06:12:39;;;;;;;19.88;12.95;;;;;;;18.03;100.00;101495.09;4960062;28;20034;-90
2023/08/18 06:15:11;;;;;;;19.70;13.30;;;;;;;18.03;100.00;101495.09;4958942;28;20368;-90
2023/08/18 06:17:39;;;;;;;17.90;12.40;;;;;;;18.00;100.00;101500.28;4959275;28;20027;-90
2023/08/18 06:20:05;;;;;;;19.38;13.35;;;;;;;17.97;100.00;101498.03;4959156;28;20090;-88
2023/08/18 06:22:31;;;;;;;20.88;13.85;;;;;;;17.94;100.00;101504.00;4943074;28;20133;-89
2023/08/18 06:24:58;;;;;;;20.53;13.50;;;;;;;17.90;100.00;101498.19;4959181;28;20033;-89
2023/08/18 06:27:24;;;;;;;18.35;13.07;;;;;;;17.94;100.00;101485.63;4958912;28;20034;-89
2023/08/18 06:29:49;;;;;;;16.40;12.33;;;;;;;18.03;100.00;101488.78;4958879;28;20391;-90
2023/08/18 06:32:15;;;;;;;20.10;13.80;;;;;;;18.06;100.00;101489.13;4958582;28;20138;-89
2023/08/18 06:34:43;;;;;;;22.73;14.38;;;;;;;18.08;100.00;101479.81;4958782;28;20038;-90
2023/08/18 06:37:09;;;;;;;22.17;13.82;;;;;;;18.10;100.00;101488.59;4958557;28;20031;-89
2023/08/18 06:39:35;;;;;;;19.40;13.83;;;;;;;18.17;100.00;101481.88;4976022;28;20490;-90
2023/08/18 06:42:00;;;;;;;21.38;14.18;;;;;;;18.24;100.00;101476.19;4958732;28;20033;-89
2023/08/18 06:44:26;;;;;;;23.47;14.43;;;;;;;18.29;100.00;101481.78;4957707;28;20022;-90
2023/08/18 06:46:54;;;;;;;19.58;13.73;;;;;;;18.32;100.00;101488.66;4975353;28;20043;-89
2023/08/18 06:49:22;;;;;;;24.77;14.90;;;;;;;18.33;100.00;101482.09;4959159;28;20031;-90
2023/08/18 06:51:48;;;;;;;22.70;14.63;;;;;;;18.35;100.00;101490.91;4958458;28;20228;-88
2023/08/18 06:54:14;;;;;;;23.60;15.03;;;;;;;18.43;100.00;101487.75;4975837;28;20411;-88
2023/08/18 06:56:39;;;;;;;22.30;15.32;;;;;;;18.52;100.00;101485.41;4942597;28;20034;-88
2023/08/18 06:59:07;;;;;;;22.43;14.90;;;;;;;18.55;100.00;101477.47;4958020;28;20607;-88
2023/08/18 07:01:35;;;;;;;22.13;15.60;;;;;;;18.62;100.00;101482.78;4958981;28;20034;-88
2023/08/18 07:04:01;;;;;;;21.23;15.57;;;;;;;18.72;100.00;101473.84;4975159;28;20031;-88
2023/08/18 07:06:26;;;;;;;21.77;15.03;;;;;;;18.82;100.00;101465.72;4958551;28;20483;-88
2023/08/18 07:08:55;;;;;;;19.80;14.47;;;;;;;18.93;100.00;101472.22;4958004;28;20395;-88
2023/08/18 07:11:20;;;;;;;20.75;14.93;;;;;;;19.01;100.00;101470.94;4958310;28;20053;-88
2023/08/18 07:13:45;;;;;;;23.07;15.07;;;;;;;19.05;100.00;101466.59;4942533;28;20456;-88
2023/08/18 07:16:11;;;;;;;21.35;14.63;;;;;;;19.12;100.00;101458.97;4957171;28;20038;-89
2023/08/18 07:18:39;;;;;;;22.90;15.53;;;;;;;19.25;100.00;101455.81;4957880;28;20129;-89
2023/08/18 07:21:04;;;;;;;22.75;14.07;;;;;;;19.34;100.00;101458.94;4959207;28;20475;-88
2023/08/18 07:23:30;;;;;;;20.73;14.00;;;;;;;19.35;100.00;101457.81;4974335;28;20033;-88
2023/08/18 07:25:55;;;;;;;22.65;14.85;;;;;;;19.43;100.00;101462.88;4975026;28;20056;-88
2023/08/18 07:28:21;;;;;;;20.77;14.33;;;;;;;19.52;100.00;101471.50;4958165;28;20061;-88
2023/08/18 07:30:46;;;;;;;20.00;14.00;;;;;;;19.57;100.00;101468.78;4974845;28;20109;-88
2023/08/18 07:33:12;;;;;;;21.47;15.23;;;;;;;19.69;100.00;101467.78;4957509;28;20061;-87
2023/08/18 07:35:42;;;;;;;18.92;13.60;;;;;;;19.82;100.00;101475.63;4958106;28;20035;-88
2023/08/18 07:38:21;;;;;;;20.10;14.25;;;;;;;19.88;100.00;101480.09;4958009;28;20031;-88
2023/08/18 07:40:46;;;;;;;20.00;14.67;;;;;;;19.92;100.00;101475.72;4925634;28;20125;-85
2023/08/18 07:43:12;;;;;;;19.77;14.07;;;;;;;19.95;100.00;101472.44;4973833;28;20070;-88
2023/08/18 07:45:48;;;;;;;19.33;14.30;;;;;;;20.08;100.00;101475.84;4957886;28;20038;-88
2023/08/18 07:48:14;;;;;;;18.85;14.85;;;;;;;20.18;100.00;101473.16;4975807;28;20035;-91
2023/08/18 07:50:43;;;;;;;19.90;14.47;;;;;;;20.17;100.00;101477.00;4952851;29;20261;-92
2023/08/18 07:53:12;;;;;;;19.70;13.98;;;;;;;20.31;100.00;101478.22;4959942;28;20031;-92
2023/08/18 07:55:45;;;;;;;18.10;13.90;;;;;;;20.37;100.00;101470.78;4969839;28;20476;-92
2023/08/18 07:58:10;;;;;;;19.10;13.57;;;;;;;20.41;100.00;101485.69;4956002;28;20035;-91
2023/08/18 08:00:36;;;;;;;17.58;14.07;;;;;;;20.45;100.00;101488.78;4938880;28;20135;-93
2023/08/18 08:03:02;;;;;;;18.27;13.70;;;;;;;20.43;100.00;101486.28;4971127;28;20035;-93
2023/08/18 08:05:31;;;;;;;21.48;13.88;;;;;;;20.50;100.00;101477.75;4938512;29;20036;-92
2023/08/18 08:08:07;;;;;;;;;;;;;;;;;;;;;
2023/08/18 08:10:45;;;;;;;;;;;;;;;;;;;;;
2023/08/18 08:13:18;;;;;;;17.83;13.55;;;;;;;20.80;100.00;101482.66;4976115;28;20043;-92
2023/08/18 08:15:45;;;;;;;17.63;13.32;;;;;;;20.90;99.86;101476.31;4942959;28;20030;-91
2023/08/18 08:18:18;;;;;;;20.17;14.52;;;;;;;21.04;100.00;101484.94;4975538;28;20061;-92
2023/08/18 08:20:47;;;;;;;19.67;13.68;;;;;;;21.12;99.04;101492.69;4942694;28;20121;-88
2023/08/18 08:23:12;;;;;;;20.17;14.83;;;;;;;21.07;98.71;101484.41;4956342;28;20023;-89
2023/08/18 08:25:40;;;;;;;23.10;15.40;;;;;;;21.03;98.47;101484.09;4944172;29;20380;-89
2023/08/18 08:28:08;;;;;;;22.20;16.93;;;;;;;21.02;98.65;101487.97;4937552;29;20038;-89
2023/08/18 08:30:33;;;;;;;26.33;16.05;;;;;;;21.06;98.39;101496.53;4954668;29;20118;-89
2023/08/18 08:32:59;;;;;;;21.10;15.10;;;;;;;21.16;98.69;101484.72;4944739;28;20138;-92
2023/08/18 08:35:24;;;;;;;25.20;16.07;;;;;;;21.20;98.56;101492.16;4940804;29;20033;-91
2023/08/18 08:37:52;;;;;;;22.50;16.13;;;;;;;21.19;98.28;101504.28;4953221;28;20045;-91
2023/08/18 08:40:20;;;;;;;18.75;14.82;;;;;;;21.31;97.36;101506.81;4937701;29;20034;-90
2023/08/18 08:42:53;;;;;;;24.40;15.45;;;;;;;21.22;97.17;101508.44;4938157;29;20480;-90
2023/08/18 08:45:19;;;;;;;19.20;14.95;;;;;;;21.23;97.19;101507.34;4938001;29;20035;-90
2023/08/18 08:47:46;;;;;;;20.67;14.60;;;;;;;21.24;96.85;101510.94;4938550;29;20106;-90
2023/08/18 08:50:15;;;;;;;21.23;14.75;;;;;;;21.30;96.96;101510.66;4949782;28;20047;-90
2023/08/18 08:52:42;;;;;;;17.30;13.30;;;;;;;21.35;96.71;101510.69;4957267;28;20482;-90
2023/08/18 08:55:08;;;;;;;20.55;14.57;;;;;;;21.39;96.41;101513.72;4957166;28;20035;-90
2023/08/18 08:57:34;;;;;;;19.00;13.67;;;;;;;21.51;96.22;101506.06;4974750;28;20452;-89
2023/08/18 09:00:02;;;;;;;19.98;13.70;;;;;;;21.65;94.72;101511.88;4957402;28;20027;-90
2023/08/18 09:02:28;;;;;;;18.42;13.63;;;;;;;21.65;95.07;101506.34;4941732;28;20035;-90
2023/08/18 09:05:00;;;;;;;18.13;13.30;;;;;;;21.76;94.43;101511.88;4957119;28;20046;-92
2023/08/18 09:07:27;;;;;;;17.00;13.05;;;;;;;21.83;93.78;101513.28;4925920;28;20063;-90
2023/08/18 09:09:53;;;;;;;17.63;12.30;;;;;;;21.99;92.76;101516.06;4957132;28;20030;-90
2023/08/18 09:12:25;;;;;;;19.33;13.43;;;;;;;22.06;92.47;101511.91;4960471;28;20395;-90
2023/08/18 09:14:53;;;;;;;15.90;13.02;;;;;;;22.07;92.67;101508.03;4961396;28;20085;-87
2023/08/18 09:17:21;;;;;;;16.52;13.48;;;;;;;22.24;91.36;101517.97;4959978;28;20038;-88
2023/08/18 09:19:49;;;;;;;15.10;12.90;;;;;;;22.22;91.62;101515.50;4960240;28;20027;-87
2023/08/18 09:22:19;;;;;;;18.57;13.63;;;;;;;22.34;90.46;101509.69;4960183;28;20023;-87
2023/08/18 09:24:48;;;;;;;17.50;13.80;;;;;;;22.43;90.45;101507.19;4959866;28;20026;-88
2023/08/18 09:27:14;;;;;;;17.60;13.63;;;;;;;22.59;89.67;101494.16;4959972;28;20121;-88
2023/08/18 09:29:42;;;;;;;17.98;13.85;;;;;;;22.59;89.09;101489.47;4959758;28;20070;-87
2023/08/18 09:32:11;;;;;;;18.07;14.40;;;;;;;22.73;88.82;101486.09;4959636;28;20055;-88
2023/08/18 09:34:43;;;;;;;18.83;14.82;;;;;;;22.70;88.88;101489.44;4944482;28;20034;-87
2023/08/18 09:37:09;;;;;;;19.35;14.73;;;;;;;22.87;87.83;101498.22;4960190;28;20042;-87
2023/08/18 09:39:35;;;;;;;17.10;13.60;;;;;;;23.16;87.02;101493.97;4952941;29;20039;-87
2023/08/18 09:42:00;;;;;;;19.35;14.32;;;;;;;23.32;86.13;101495.53;4940774;29;20048;-88
2023/08/18 09:44:27;;;;;;;19.73;14.37;;;;;;;23.37;85.47;101494.66;4940506;29;20395;-88
2023/08/18 09:47:07;;;;;;;17.15;14.00;;;;;;;23.49;86.14;101492.38;4940506;29;20063;-88
2023/08/18 09:49:38;;;;;;;18.67;15.02;;;;;;;23.47;84.57;101491.84;4940208;29;20106;-87
2023/08/18 09:52:08;;;;;;;19.57;14.33;;;;;;;23.57;83.88;101491.75;4939962;29;20027;-88
2023/08/18 09:54:45;;;;;;;18.58;14.80;;;;;;;23.78;84.21;101486.91;4940333;29;20035;-88
2023/08/18 09:57:37;;;;;;;18.63;15.10;;;;;;;23.87;83.45;101483.53;4940285;29;20042;-88
2023/08/18 10:00:08;;;;;;;20.45;15.45;;;;;;;23.84;81.99;101487.69;4940247;29;20034;-88
2023/08/18 10:02:36;;;;;;;22.95;16.23;;;;;;;23.91;81.93;101476.31;4939741;29;20126;-87
2023/08/18 10:05:03;;;;;;;19.17;15.80;;;;;;;23.98;81.54;101485.13;4939708;29;20027;-88
2023/08/18 10:07:32;;;;;;;22.25;16.42;;;;;;;24.03;81.55;101479.50;4940512;29;20093;-88
2023/08/18 10:09:59;;;;;;;19.70;16.17;;;;;;;24.02;80.57;101483.41;4924470;29;20043;-88
2023/08/18 10:12:27;;;;;;;27.38;16.92;;;;;;;24.17;80.32;101483.25;4949944;28;20042;-88
2023/08/18 10:14:53;;;;;;;23.02;17.38;;;;;;;24.29;79.77;101479.28;4943250;28;20034;-88
2023/08/18 10:17:24;;;;;;;22.20;16.77;;;;;;;24.46;79.09;101474.09;4958697;28;20034;-88
2023/08/18 10:19:54;;;;;;;23.58;18.48;;;;;;;24.57;79.05;101468.44;4958715;28;20037;-87
2023/08/18 10:22:25;;;;;;;25.17;19.10;;;;;;;24.82;77.34;101475.66;4958172;28;20035;-88
2023/08/18 10:24:52;;;;;;;26.25;19.88;;;;;;;24.88;77.08;101468.91;4959118;28;20460;-88
2023/08/18 10:27:27;;;;;;;27.63;19.92;;;;;;;25.08;77.17;101456.69;4959195;28;20444;-88
2023/08/18 10:30:22;;;;;;;27.10;22.20;;;;;;;25.15;76.35;101456.34;4958551;28;20045;-88
2023/08/18 10:32:47;;;;;;;25.77;21.33;;;;;;;25.33;75.00;101461.06;4958354;28;20492;-88
2023/08/18 10:35:28;;;;;;;28.42;21.25;;;;;;;25.58;75.41;101453.47;4958766;28;20039;-88
2023/08/18 10:38:04;;;;;;;24.67;20.37;;;;;;;25.82;74.02;101450.59;4959068;28;20057;-88
2023/08/18 10:40:38;;;;;;;25.77;20.38;;;;;;;26.02;72.02;101449.41;4944000;28;20051;-88
2023/08/18 10:43:06;;;;;;;22.83;19.48;;;;;;;26.15;71.12;101447.00;4958353;28;20420;-88
2023/08/18 10:45:31;;;;;;;24.05;18.75;;;;;;;26.33;70.14;101448.03;4958490;28;20035;-88
2023/08/18 10:48:01;;;;;;;20.73;17.53;;;;;;;26.48;69.76;101442.16;4976121;28;20117;-88
2023/08/18 10:50:31;;;;;;;24.52;18.45;;;;;;;26.67;69.67;101433.72;4975783;28;20037;-88
2023/08/18 10:53:03;;;;;;;20.58;17.70;;;;;;;26.95;67.87;101433.69;4958311;28;20027;-88
2023/08/18 10:55:32;;;;;;;20.80;17.58;;;;;;;27.08;67.09;101427.25;4958414;28;20030;-88
2023/08/18 10:57:57;;;;;;;22.58;17.77;;;;;;;27.18;66.13;101429.00;4958276;28;20126;-88
2023/08/18 11:00:23;;;;;;;24.13;17.70;;;;;;;27.30;66.18;101426.47;4958335;28;20118;-88
2023/08/18 11:02:52;;;;;;;24.08;17.65;;;;;;;27.45;65.49;101430.06;4958320;28;20030;-88
2023/08/18 11:05:20;;;;;;;19.75;17.65;;;;;;;27.77;64.60;101419.75;4975562;28;20027;-88
2023/08/18 11:07:49;;;;;;;19.90;17.17;;;;;;;27.98;63.63;101418.13;4957817;28;20047;-88
2023/08/18 11:10:23;;;;;;;19.23;17.23;;;;;;;28.05;63.33;101419.63;4957892;28;20035;-88
2023/08/18 11:12:51;;;;;;;20.15;17.52;;;;;;;28.40;62.79;101411.41;4957873;28;20085;-88